66R

Robert R Wells Jr Airport

Columbus, Texas, USA
METAR K66R 210335Z AUTO 26004KT 10SM SCT027 15/12 A3011 RMK AO2 T01530116
Observed Flight Rules
Apr-21 @ 03:35 UTC (24 minutes ago) Visual Flight Rules
Wind Visibility Clouds
260° at 4 knots 10 miles
  • Scattered at 2,700' AGL
Temperatures Readings
Current 15°C / 59°F
Dewpoint 12°C / 54°F
Humidity 82%
Altimeter 30.11" Hg
Pressure 1020 hPa
Elevation 74
METAR K66R 210335Z AUTO 26004KT 10SM SCT027 15/12 A3011 RMK AO2 T01530116
Observed Flight Rules
Apr-21 @ 03:35 UTC
(24 minutes ago)
VFR
Wind Visibility
260° at 4 knots 10 miles
Clouds
  • Scattered at 2,700' AGL
Temperature Dewpoint
15°C / 59°F 12°C / 54°F
Humidity Altimeter Pressure
82% 30.11" Hg 1020 hPa